Time;durP1;ratioP1;P1;durP2;ratioP2;P2;SDS_P1;SDS_P2;PMS_P1;PMS_P2;Temp;Humidity;BMP_temperature;BMP_pressure;BME280_temperature;BME280_humidity;BME280_pressure;Samples;Min_cycle;Max_cycle;Signal;HPM_P1;HPM_P2
2022/06/03 00:01:53;;;;;;;7.60;5.10;;;;;;;-148.88;87.62;76364.28;5016151;28;20029;-83
2022/06/03 00:04:46;;;;;;;5.85;4.78;;;;;;;-148.88;88.22;76372.41;5033092;28;20498;-84
2022/06/03 00:07:35;;;;;;;6.27;5.00;;;;;;;-148.88;88.50;76374.44;5015832;28;20033;-83
2022/06/03 00:10:20;;;;;;;6.32;5.10;;;;;;;-148.88;88.29;76382.56;4990242;28;20096;-83
2022/06/03 00:12:52;;;;;;;7.10;5.50;;;;;;;-148.88;88.72;76378.50;5020236;28;20533;-84
2022/06/03 00:15:41;;;;;;;6.22;5.20;;;;;;;-148.88;89.03;76386.63;5038558;28;20029;-84
2022/06/03 00:18:25;;;;;;;5.80;5.00;;;;;;;-148.88;89.26;76390.69;5020986;28;20040;-82
2022/06/03 00:20:50;;;;;;;;;;;;;;;-148.88;88.99;76386.63;5038713;28;20079;-83
2022/06/03 00:23:38;;;;;;;6.53;5.05;;;;;;;-148.88;89.84;76396.78;5020862;28;19909;-84
2022/06/03 00:26:40;;;;;;;7.13;5.50;;;;;;;-148.88;90.29;76402.88;5020224;28;20022;-84
2022/06/03 00:29:32;;;;;;;8.93;5.18;;;;;;;-148.88;91.08;76400.84;5020626;28;20030;-83
2022/06/03 00:32:25;;;;;;;7.93;5.93;;;;;;;-148.88;91.37;76406.94;5020785;28;20052;-83
2022/06/03 00:35:05;;;;;;;6.78;5.50;;;;;;;-148.88;92.26;76402.88;5023358;28;20021;-84
2022/06/03 00:37:48;;;;;;;7.43;5.57;;;;;;;-148.88;92.41;76400.84;5019646;28;20116;-82
2022/06/03 00:40:30;;;;;;;7.78;5.80;;;;;;;-148.88;92.34;76398.81;5018911;28;20037;-82
2022/06/03 00:43:09;;;;;;;6.85;5.28;;;;;;;-148.88;92.00;76408.97;5037293;28;20125;-83
2022/06/03 00:45:50;;;;;;;6.00;5.40;;;;;;;-148.88;91.52;76406.94;5020120;28;20025;-83
2022/06/03 00:48:53;;;;;;;7.63;5.38;;;;;;;-148.88;91.88;76415.06;5020238;28;20048;-83
2022/06/03 00:51:34;;;;;;;7.00;6.07;;;;;;;-148.88;92.57;76417.09;5037793;28;20107;-84
2022/06/03 00:54:06;;;;;;;8.98;6.60;;;;;;;-148.88;93.01;76423.19;5038658;28;20025;-85
2022/06/03 00:56:52;;;;;;;7.75;6.65;;;;;;;-148.88;93.77;76439.47;5022276;28;20478;-85
2022/06/03 00:59:58;;;;;;;9.13;6.90;;;;;;;-148.88;94.50;76433.38;5022554;28;20029;-82
2022/06/03 01:02:48;;;;;;;10.38;7.55;;;;;;;-148.88;94.71;76435.41;5023763;28;20442;-83
2022/06/03 01:05:31;;;;;;;7.40;6.63;;;;;;;-148.88;94.79;76439.47;5040696;28;20051;-84
2022/06/03 01:08:21;;;;;;;7.50;6.57;;;;;;;-148.88;94.30;76441.50;5024500;28;20553;-83
2022/06/03 01:11:02;;;;;;;8.20;6.90;;;;;;;-148.88;94.36;76437.44;5042196;28;20096;-85
2022/06/03 01:13:35;;;;;;;9.10;8.02;;;;;;;-148.88;94.27;76439.47;5045335;28;20021;-81
2022/06/03 01:16:30;;;;;;;8.88;7.03;;;;;;;-148.88;94.75;76439.47;5019585;28;20112;-83
2022/06/03 01:19:35;;;;;;;8.55;7.13;;;;;;;-148.88;94.56;76439.47;5039519;28;20032;-84
2022/06/03 01:22:24;;;;;;;9.07;7.38;;;;;;;-148.88;94.15;76439.47;5040605;28;20401;-85
2022/06/03 01:25:01;;;;;;;9.23;7.32;;;;;;;-148.88;93.97;76439.47;5041898;28;20402;-81
2022/06/03 01:28:17;;;;;;;9.60;7.57;;;;;;;-148.88;93.80;76441.50;5025339;28;20064;-85
2022/06/03 01:31:24;;;;;;;9.23;7.28;;;;;;;-148.88;93.92;76439.47;5042843;28;20079;-83
2022/06/03 01:34:14;;;;;;;9.70;6.95;;;;;;;-148.88;94.24;76443.53;5043959;28;20387;-84
2022/06/03 01:37:17;;;;;;;7.63;6.78;;;;;;;-148.88;93.80;76443.53;5026305;28;20017;-85
2022/06/03 01:40:08;;;;;;;9.18;6.20;;;;;;;-148.88;93.57;76443.53;5025631;28;20478;-85
2022/06/03 01:42:58;;;;;;;8.38;6.05;;;;;;;-148.88;93.10;76453.69;5028238;28;20025;-84
2022/06/03 01:45:51;;;;;;;7.25;5.97;;;;;;;-148.88;93.43;76459.78;5027724;28;20498;-85
2022/06/03 01:48:35;;;;;;;6.75;5.90;;;;;;;-148.88;93.68;76465.88;5023427;28;20021;-84
2022/06/03 01:51:00;;;;;;;7.97;6.47;;;;;;;-148.88;93.65;76474.00;5039485;28;20026;-83
2022/06/03 01:54:14;;;;;;;7.67;6.33;;;;;;;-148.88;93.72;76474.00;5041921;28;20028;-83
2022/06/03 01:57:07;;;;;;;8.30;6.63;;;;;;;-148.88;94.23;76484.16;4979009;28;20266;-83
2022/06/03 02:00:03;;;;;;;7.30;6.20;;;;;;;-148.88;94.94;76488.22;5035009;28;20029;-82
2022/06/03 02:03:05;;;;;;;7.82;6.45;;;;;;;-148.88;94.53;76484.16;5035060;28;20199;-83
2022/06/03 02:06:09;;;;;;;9.30;7.10;;;;;;;-148.88;94.75;76486.19;5016943;28;20029;-83
2022/06/03 02:08:46;;;;;;;8.57;6.60;;;;;;;-148.88;94.50;76488.22;5011508;28;20037;-83
2022/06/03 02:11:29;;;;;;;8.05;6.20;;;;;;;-148.88;94.42;76490.25;5017453;28;20033;-83
2022/06/03 02:14:35;;;;;;;8.13;6.60;;;;;;;-148.88;94.85;76492.28;5035026;28;20075;-83
2022/06/03 02:17:41;;;;;;;9.40;6.75;;;;;;;-148.88;94.61;76498.38;5017909;28;20029;-82
2022/06/03 02:20:45;;;;;;;7.18;6.40;;;;;;;-148.88;95.28;76504.47;5034636;28;20108;-83
2022/06/03 02:23:26;;;;;;;7.73;6.20;;;;;;;-148.88;95.18;76508.53;4994630;28;20118;-81
2022/06/03 02:26:07;;;;;;;10.45;6.00;;;;;;;-148.88;95.31;76516.66;5017662;28;20032;-83
2022/06/03 02:32:13;;;;;;;8.02;6.35;;;;;;;-148.88;95.93;76524.78;5035339;28;20505;-83
2022/06/03 02:35:01;;;;;;;7.50;6.70;;;;;;;-148.88;95.68;76528.84;5018834;28;20041;-84
2022/06/03 02:37:57;;;;;;;8.32;6.80;;;;;;;-148.88;96.40;76526.81;5036525;28;20017;-83
2022/06/03 02:40:39;;;;;;;10.07;6.47;;;;;;;-148.88;95.95;76536.97;5035928;28;20517;-83
2022/06/03 02:43:25;;;;;;;8.25;6.70;;;;;;;-148.88;96.28;76532.91;5018528;28;20036;-83
2022/06/03 02:46:26;;;;;;;8.13;6.85;;;;;;;-148.88;95.77;76532.91;5036693;28;20025;-83
2022/06/03 02:49:48;;;;;;;9.38;6.47;;;;;;;-148.88;95.42;76543.06;5017839;28;20028;-85
2022/06/03 02:52:51;;;;;;;7.90;6.55;;;;;;;-148.88;95.68;76541.03;4974155;28;20023;-84
2022/06/03 02:55:19;;;;;;;8.25;6.60;;;;;;;-148.88;96.03;76543.06;4958088;28;20019;-83
2022/06/03 02:58:17;;;;;;;9.05;7.28;;;;;;;-148.88;96.01;76536.97;5026579;28;20038;-83
2022/06/03 03:01:34;;;;;;;8.48;7.05;;;;;;;-148.88;96.56;76545.09;5017415;28;20041;-84
2022/06/03 03:04:21;;;;;;;10.80;7.28;;;;;;;-148.88;96.20;76549.16;4985570;28;20033;-84
2022/06/03 03:07:20;;;;;;;7.90;6.78;;;;;;;-148.88;95.95;76551.19;5034928;28;20071;-84
2022/06/03 03:10:18;;;;;;;7.93;6.68;;;;;;;-148.88;95.79;76557.28;5017084;28;20036;-83
2022/06/03 03:13:05;;;;;;;10.13;6.88;;;;;;;-148.88;95.94;76561.34;5018030;28;20028;-83
2022/06/03 03:15:52;;;;;;;7.85;6.63;;;;;;;-148.88;96.45;76565.41;5016305;28;20026;-84
2022/06/03 03:19:06;;;;;;;8.60;6.80;;;;;;;-148.88;96.35;76569.47;5015707;28;20022;-83
2022/06/03 03:22:06;;;;;;;7.95;6.60;;;;;;;-148.88;96.55;76573.53;5015929;28;20036;-82
2022/06/03 03:24:46;;;;;;;7.95;6.90;;;;;;;-148.88;96.38;76571.50;5015788;28;20429;-83
2022/06/03 03:27:50;;;;;;;7.90;6.72;;;;;;;-148.88;96.76;76571.50;5015905;28;20139;-84
2022/06/03 03:30:30;;;;;;;10.52;7.15;;;;;;;-148.88;97.20;76573.53;4934352;29;20057;-84
2022/06/03 03:33:03;;;;;;;9.43;6.82;;;;;;;-148.88;97.51;76579.63;5023470;28;20038;-83
2022/06/03 03:35:37;;;;;;;9.35;6.90;;;;;;;-148.88;97.99;76579.63;5016818;28;20036;-84
2022/06/03 03:38:33;;;;;;;8.10;7.00;;;;;;;-148.88;98.01;76583.69;5034699;28;20033;-84
2022/06/03 03:40:59;;;;;;;10.00;7.03;;;;;;;-148.88;98.09;76581.66;5016045;28;20033;-85
2022/06/03 03:43:53;;;;;;;8.93;7.57;;;;;;;-148.88;98.12;76581.66;5016101;28;20033;-87
2022/06/03 03:46:37;;;;;;;11.90;8.35;;;;;;;-148.88;99.16;76573.53;5037641;28;20493;-85
2022/06/03 03:49:34;;;;;;;10.27;7.72;;;;;;;-148.88;99.35;76575.56;5021421;28;20052;-84
2022/06/03 03:52:27;;;;;;;9.57;8.15;;;;;;;-148.88;99.68;76569.47;5038734;28;20037;-86
2022/06/03 03:55:38;;;;;;;10.93;8.40;;;;;;;-148.88;99.67;76559.31;5019171;28;20037;-83
2022/06/03 03:58:42;;;;;;;10.77;7.93;;;;;;;-148.88;99.73;76561.34;5019164;28;20363;-83
2022/06/03 04:01:26;;;;;;;11.40;8.27;;;;;;;-148.88;99.92;76561.34;5019416;28;20074;-82
2022/06/03 04:04:06;;;;;;;;;;;;;;;-148.88;99.37;76561.34;5037666;28;20037;-83
2022/06/03 04:06:59;;;;;;;11.20;8.38;;;;;;;-148.88;99.59;76559.31;5019444;28;20382;-84
2022/06/03 04:09:54;;;;;;;11.50;7.88;;;;;;;-148.88;100.00;76549.16;5037297;28;20524;-82
2022/06/03 04:12:45;;;;;;;9.75;8.30;;;;;;;-148.88;99.35;76545.09;5037194;28;20021;-81
2022/06/03 04:15:48;;;;;;;10.40;8.13;;;;;;;-148.88;100.00;76549.16;5020071;28;20032;-82
2022/06/03 04:18:32;;;;;;;11.63;7.68;;;;;;;-148.88;99.86;76553.22;5019849;28;20025;-82
2022/06/03 04:21:16;;;;;;;;;;;;;;;-148.88;100.00;76551.19;5020355;28;20040;-83
2022/06/03 04:24:04;;;;;;;10.50;8.40;;;;;;;-148.88;99.83;76553.22;5019497;28;19909;-84
2022/06/03 04:27:02;;;;;;;14.10;8.25;;;;;;;-148.88;99.69;76553.22;5020770;28;20057;-83
2022/06/03 04:29:50;;;;;;;10.88;8.15;;;;;;;-148.88;100.00;76545.09;5037784;28;20022;-81
2022/06/03 04:32:45;;;;;;;13.13;8.13;;;;;;;-148.88;99.96;76539.00;4990130;28;20095;-81
2022/06/03 04:35:40;;;;;;;9.55;7.80;;;;;;;-148.88;99.52;76541.03;5037202;28;20025;-80
2022/06/03 04:38:36;;;;;;;8.32;7.53;;;;;;;-148.88;100.00;76532.91;5019139;28;20025;-81
2022/06/03 04:41:13;;;;;;;8.50;7.43;;;;;;;-148.88;100.00;76536.97;5037334;28;20025;-82
2022/06/03 04:44:15;;;;;;;11.05;7.32;;;;;;;-148.88;99.59;76532.91;5019660;28;20029;-82
2022/06/03 04:47:12;;;;;;;10.88;7.57;;;;;;;-148.88;99.30;76532.91;5037481;28;20035;-83
2022/06/03 04:50:05;;;;;;;9.07;8.02;;;;;;;-148.88;99.62;76532.91;5020717;28;20394;-85
2022/06/03 04:52:54;;;;;;;10.07;7.80;;;;;;;-148.88;99.61;76522.75;5020191;28;20041;-83
2022/06/03 04:55:26;;;;;;;8.40;7.32;;;;;;;-148.88;99.64;76520.72;5037596;28;20033;-85
2022/06/03 04:58:31;;;;;;;10.43;8.38;;;;;;;-148.88;100.00;76512.59;5020240;28;20025;-84
2022/06/03 05:01:08;;;;;;;10.77;7.53;;;;;;;-148.88;99.90;76504.47;5038591;28;20431;-85
2022/06/03 05:04:29;;;;;;;9.25;8.10;;;;;;;-148.88;100.00;76482.13;5037494;28;20026;-86
2022/06/03 05:07:39;;;;;;;11.98;8.40;;;;;;;-148.88;100.00;76471.97;5007764;28;20056;-86
2022/06/03 05:10:33;;;;;;;10.20;8.07;;;;;;;-148.88;100.00;76474.00;5003231;28;20033;-85
2022/06/03 05:13:20;;;;;;;12.33;9.43;;;;;;;-148.88;100.00;76459.78;5036840;28;20386;-84
2022/06/03 05:16:17;;;;;;;12.93;8.98;;;;;;;-148.88;100.00;76463.84;5018971;28;20029;-84
2022/06/03 05:18:51;;;;;;;9.75;7.57;;;;;;;-148.88;99.90;76449.63;5019264;28;20048;-87
2022/06/03 05:21:51;;;;;;;9.80;7.60;;;;;;;-148.88;99.96;76431.34;5036260;28;20031;-87
2022/06/03 05:24:57;;;;;;;10.85;8.45;;;;;;;-148.88;98.72;76415.06;5018606;28;20029;-87
2022/06/03 05:28:19;;;;;;;9.18;7.10;;;;;;;-148.88;98.31;76408.97;5017841;28;20028;-87
2022/06/03 05:31:05;;;;;;;9.60;7.18;;;;;;;-148.88;98.25;76390.69;4958649;28;20066;-88
2022/06/03 05:33:42;;;;;;;10.75;7.90;;;;;;;-148.88;98.75;76358.19;4958752;28;20037;-87
2022/06/03 05:36:29;;;;;;;9.45;7.97;;;;;;;-148.88;98.45;76358.19;4998812;28;20037;-88
2022/06/03 05:39:49;;;;;;;9.57;7.45;;;;;;;-148.88;98.15;76352.09;5018169;28;20061;-87
2022/06/03 05:42:34;;;;;;;9.45;7.55;;;;;;;-148.88;97.89;76335.84;5036155;28;20033;-88
2022/06/03 05:45:34;;;;;;;8.40;6.97;;;;;;;-148.88;96.62;76309.44;5035543;28;20039;-87
2022/06/03 05:48:25;;;;;;;8.98;6.68;;;;;;;-148.88;95.01;76289.13;4966267;28;20039;-87
2022/06/03 05:51:05;;;;;;;10.50;6.68;;;;;;;-148.88;94.69;76268.81;5018858;28;20025;-88
2022/06/03 05:53:56;;;;;;;7.90;7.10;;;;;;;-148.88;96.23;76254.59;5035898;28;20503;-87
2022/06/03 05:56:46;;;;;;;8.95;7.93;;;;;;;-148.88;96.26;76248.50;5036010;28;20043;-88
2022/06/03 05:59:30;;;;;;;9.15;6.88;;;;;;;-148.88;95.39;76240.38;5036618;28;20033;-87
2022/06/03 06:02:05;;;;;;;7.35;6.50;;;;;;;-148.88;94.41;76220.06;5018220;28;20025;-87
2022/06/03 06:04:55;;;;;;;9.40;6.85;;;;;;;-148.88;94.31;76218.03;5036143;28;20025;-87
2022/06/03 06:07:36;;;;;;;10.02;6.45;;;;;;;-148.88;93.36;76187.56;5017311;28;20037;-88
2022/06/03 06:10:11;;;;;;;9.48;7.50;;;;;;;-148.88;94.24;76181.47;5015746;28;20030;-88
2022/06/03 06:13:07;;;;;;;7.10;6.40;;;;;;;-148.88;93.87;76155.06;5017386;28;20363;-86
2022/06/03 06:15:59;;;;;;;8.52;6.57;;;;;;;-148.88;92.73;76136.78;5017586;28;20068;-88
2022/06/03 06:18:48;;;;;;;7.63;6.30;;;;;;;-148.88;90.45;76122.56;5017937;28;20036;-87
2022/06/03 06:21:13;;;;;;;7.55;5.60;;;;;;;-148.88;90.37;76100.19;5035479;28;20040;-88
2022/06/03 06:24:06;;;;;;;6.53;5.75;;;;;;;-148.88;90.48;76085.97;5017106;28;20021;-88
2022/06/03 06:27:09;;;;;;;6.32;5.28;;;;;;;-148.88;86.05;76061.59;5017215;28;20510;-87
2022/06/03 06:29:59;;;;;;;7.00;5.32;;;;;;;-148.88;83.58;76045.34;5035217;28;20029;-89
2022/06/03 06:32:35;;;;;;;6.13;5.15;;;;;;;-148.88;83.85;76023.00;5018233;28;20024;-88
2022/06/03 06:35:31;;;;;;;6.07;4.75;;;;;;;-148.88;82.84;76014.88;5018038;28;20386;-88
2022/06/03 06:38:27;;;;;;;6.85;4.47;;;;;;;-148.88;84.07;75988.47;5018338;28;20030;-87
2022/06/03 06:41:21;;;;;;;6.15;4.57;;;;;;;-148.88;82.53;75984.41;5017543;28;20489;-88
2022/06/03 06:44:06;;;;;;;5.38;4.57;;;;;;;-148.88;82.83;75972.22;5019833;28;20034;-88
2022/06/03 06:47:05;;;;;;;6.72;4.50;;;;;;;-148.88;82.71;75966.13;5017261;28;20120;-88
2022/06/03 06:49:58;;;;;;;5.05;3.97;;;;;;;-148.88;79.81;75937.69;5035795;28;20025;-88
2022/06/03 06:52:43;;;;;;;8.82;4.32;;;;;;;-148.88;79.98;75923.47;5018806;28;20044;-88
2022/06/03 06:55:26;;;;;;;4.75;3.90;;;;;;;-148.88;80.47;75913.31;5017350;28;20030;-88
2022/06/03 06:58:03;;;;;;;4.97;3.67;;;;;;;-148.88;80.72;75897.06;5017494;28;20021;-88
2022/06/03 07:00:52;;;;;;;4.93;3.55;;;;;;;-148.88;77.85;75884.88;5018098;28;20022;-88
2022/06/03 07:03:50;;;;;;;7.43;4.10;;;;;;;-148.88;78.77;75874.72;5016489;28;20036;-86
2022/06/03 07:06:30;;;;;;;6.80;4.15;;;;;;;-148.88;77.17;75872.69;5034350;28;20029;-88
2022/06/03 07:09:07;;;;;;;5.18;3.92;;;;;;;-148.88;76.37;75858.47;5016977;28;20029;-87
2022/06/03 07:12:04;;;;;;;7.22;4.20;;;;;;;-148.88;77.14;75838.16;5017314;28;20075;-88
2022/06/03 07:15:08;;;;;;;5.63;3.92;;;;;;;-148.88;77.98;75832.06;4973201;28;20100;-87
2022/06/03 07:20:56;;;;;;;4.53;3.30;;;;;;;-148.88;74.88;75783.31;5035520;28;20091;-88
2022/06/03 07:23:41;;;;;;;5.30;3.28;;;;;;;-148.88;75.35;75791.44;5017503;28;20071;-89
2022/06/03 07:26:24;;;;;;;5.60;3.55;;;;;;;-148.88;72.88;75760.97;5034939;28;20018;-87
2022/06/03 07:29:13;;;;;;;6.25;3.22;;;;;;;-148.88;71.85;75750.81;5021071;28;20037;-89
2022/06/03 07:32:30;;;;;;;4.57;3.05;;;;;;;-148.88;73.14;75742.69;5016800;28;20574;-90
2022/06/03 07:34:52;;;;;;;3.60;2.97;;;;;;;-148.88;72.72;75748.78;5028994;28;20075;-90
2022/06/03 07:38:28;;;;;;;4.45;3.35;;;;;;;-148.88;72.84;75728.47;5017599;28;20021;-90
2022/06/03 07:41:14;;;;;;;6.85;3.42;;;;;;;-148.88;69.42;75704.09;5033016;28;20040;-88
2022/06/03 07:44:08;;;;;;;4.00;3.25;;;;;;;-148.88;70.09;75695.97;5022526;28;20075;-90
2022/06/03 07:46:45;;;;;;;5.18;3.10;;;;;;;-148.88;69.44;75689.88;5036807;28;20026;-90
2022/06/03 07:49:21;;;;;;;4.05;3.15;;;;;;;-148.88;71.90;75667.53;5019847;28;20049;-89
2022/06/03 07:52:11;;;;;;;4.22;3.50;;;;;;;-148.88;70.64;75639.09;5018207;28;20045;-90
2022/06/03 07:58:18;;;;;;;7.13;3.33;;;;;;;-148.88;69.07;75614.72;5003235;28;20035;-88
2022/06/03 08:00:48;;;;;;;6.10;3.28;;;;;;;-148.88;69.10;75592.38;5017494;28;20033;-89
2022/06/03 08:03:41;;;;;;;4.00;3.00;;;;;;;-148.88;66.54;75592.38;5017734;28;20033;-90
2022/06/03 08:12:35;;;;;;;4.93;2.88;;;;;;;-148.88;66.58;75523.34;4955637;29;20179;-89
2022/06/03 08:18:18;;;;;;;5.82;2.72;;;;;;;-148.88;65.80;75486.78;5020798;28;20017;-89
2022/06/03 08:20:53;;;;;;;4.28;3.20;;;;;;;-148.88;64.29;75490.84;5017986;28;20026;-89
2022/06/03 08:23:35;;;;;;;7.60;2.80;;;;;;;-148.88;61.87;75472.56;5017342;28;20033;-89
2022/06/03 08:29:36;;;;;;;6.00;3.40;;;;;;;-148.88;61.13;75423.81;4974980;28;20062;-89
2022/06/03 08:32:31;;;;;;;3.60;2.50;;;;;;;-148.88;63.32;75395.38;4977512;28;20027;-89
2022/06/03 08:35:18;;;;;;;3.17;2.60;;;;;;;-148.88;62.67;75397.41;4976279;28;20412;-86
2022/06/03 08:38:06;;;;;;;4.07;2.20;;;;;;;-148.88;60.60;75393.34;4959338;28;20039;-89
2022/06/03 08:41:25;;;;;;;3.88;2.47;;;;;;;-148.88;60.98;75383.19;5010517;28;20033;-89
2022/06/03 08:44:28;;;;;;;3.75;2.55;;;;;;;-148.88;58.57;75375.06;5021152;28;20112;-89
2022/06/03 08:47:41;;;;;;;5.30;2.53;;;;;;;-148.88;62.49;75348.66;5022471;28;20048;-90
2022/06/03 08:50:31;;;;;;;3.20;2.38;;;;;;;-148.88;58.47;75318.19;5016497;28;20076;-89
2022/06/03 08:53:46;;;;;;;5.50;2.50;;;;;;;-148.88;58.32;75297.88;5019450;28;20025;-90
2022/06/03 08:56:33;;;;;;;2.75;2.30;;;;;;;-148.88;59.17;75285.69;5019110;28;20037;-88
2022/06/03 08:59:43;;;;;;;3.95;2.65;;;;;;;-148.88;57.32;75273.53;5019937;28;20026;-90
2022/06/03 09:02:48;;;;;;;3.63;2.20;;;;;;;-148.88;56.51;75249.16;5034231;28;20064;-89
2022/06/03 09:05:57;;;;;;;4.05;2.35;;;;;;;-148.88;55.21;75249.16;5018792;28;20032;-90
2022/06/03 09:08:48;;;;;;;3.75;2.63;;;;;;;-148.88;56.74;75243.06;5019167;28;20026;-89
2022/06/03 09:11:37;;;;;;;5.28;2.60;;;;;;;-148.88;55.11;75196.34;5037460;28;20469;-88
2022/06/03 09:14:10;;;;;;;3.90;2.75;;;;;;;-148.88;52.64;75194.31;5018829;28;20128;-89
2022/06/03 09:16:45;;;;;;;2.40;2.13;;;;;;;-148.88;54.32;75184.16;5036908;28;20025;-90
2022/06/03 09:19:17;;;;;;;2.78;2.05;;;;;;;-148.88;51.73;75184.16;5018326;28;20083;-89
2022/06/03 09:21:58;;;;;;;;;;;;;;;;;;;;;
2022/06/03 09:24:40;;;;;;;3.60;2.05;;;;;;;-148.88;50.25;75100.88;5036898;28;20098;-90
2022/06/03 09:27:29;;;;;;;3.28;1.90;;;;;;;-148.88;50.14;75111.03;5019710;28;20029;-88
2022/06/03 09:30:11;;;;;;;3.58;1.70;;;;;;;-148.88;47.68;75082.63;5036359;28;20398;-89
2022/06/03 09:32:47;;;;;;;2.55;1.88;;;;;;;-148.88;50.91;75046.06;5018926;28;20025;-89
2022/06/03 09:35:51;;;;;;;3.15;1.80;;;;;;;-148.88;49.34;75017.63;5019093;28;20075;-89
2022/06/03 09:38:25;;;;;;;2.97;2.20;;;;;;;-148.88;50.09;74979.03;5018080;28;20037;-90
2022/06/03 09:41:11;;;;;;;5.35;2.50;;;;;;;-148.88;47.84;74956.69;5035432;28;20083;-90
2022/06/03 09:43:58;;;;;;;2.25;1.88;;;;;;;-148.88;51.02;74912.03;5036046;28;20026;-89
2022/06/03 09:46:30;;;;;;;3.42;1.90;;;;;;;-148.88;47.74;74930.31;5034963;28;20060;-89
2022/06/03 09:49:22;;;;;;;3.58;1.80;;;;;;;-148.88;46.20;74881.56;5018205;28;20044;-90
2022/06/03 09:52:07;;;;;;;2.10;1.88;;;;;;;-148.88;45.01;74912.03;5018350;28;20033;-89
2022/06/03 09:54:47;;;;;;;3.75;1.90;;;;;;;-148.88;45.31;74859.22;5028770;28;20502;-89
2022/06/03 09:57:31;;;;;;;;;;;;;;;;;;;;;
2022/06/03 10:00:13;;;;;;;2.70;1.73;;;;;;;-148.88;45.48;74887.66;5035830;28;20029;-89
2022/06/03 10:02:45;;;;;;;4.13;1.60;;;;;;;-148.88;45.17;74836.88;5014668;28;20446;-89
2022/06/03 10:05:21;;;;;;;3.30;2.03;;;;;;;-148.88;43.27;74859.22;5041652;28;20044;-88
2022/06/03 10:07:53;;;;;;;2.58;1.48;;;;;;;-148.88;44.92;74849.06;5042099;28;20013;-88
2022/06/03 10:13:21;;;;;;;2.60;1.67;;;;;;;-148.88;42.88;74834.84;5035833;28;20072;-89
2022/06/03 10:16:15;;;;;;;5.35;1.90;;;;;;;-148.88;44.30;74834.84;5016810;28;20477;-89
2022/06/03 10:18:56;;;;;;;3.50;1.88;;;;;;;-148.88;45.39;74824.69;5018414;28;20422;-89
2022/06/03 10:21:25;;;;;;;3.25;1.95;;;;;;;-148.88;42.03;74790.19;5035736;28;20017;-89
2022/06/03 10:24:05;;;;;;;2.13;1.52;;;;;;;-148.88;43.75;74759.72;5015860;28;20025;-90
2022/06/03 10:27:18;;;;;;;2.83;1.52;;;;;;;-148.88;44.97;74725.19;5018168;28;20429;-90
2022/06/03 10:30:10;;;;;;;3.53;1.70;;;;;;;-148.88;43.40;74723.16;4958613;28;20050;-90
2022/06/03 10:32:51;;;;;;;5.63;1.98;;;;;;;-148.88;41.87;74751.59;4936654;28;20085;-89
2022/06/03 10:35:17;;;;;;;2.80;1.73;;;;;;;-148.88;43.27;74731.28;4958412;28;20381;-90
2022/06/03 10:37:51;;;;;;;3.38;1.80;;;;;;;-148.88;44.58;74715.03;4989287;28;20041;-91
2022/06/03 10:40:17;;;;;;;4.88;1.92;;;;;;;-148.88;43.93;74737.38;5036385;28;20021;-89
2022/06/03 10:43:00;;;;;;;4.40;1.83;;;;;;;-148.88;42.79;74715.03;5018267;28;20087;-89
2022/06/03 10:45:33;;;;;;;3.17;1.48;;;;;;;-148.88;42.11;74682.56;5035716;28;20021;-89
2022/06/03 10:47:59;;;;;;;2.90;2.00;;;;;;;-148.88;41.41;74672.41;5034691;28;20467;-90
2022/06/03 10:50:30;;;;;;;2.88;1.80;;;;;;;-148.88;43.64;74643.97;5035227;28;20368;-90
2022/06/03 11:01:31;;;;;;;1.80;1.42;;;;;;;-148.88;41.73;74625.69;5035419;28;20048;-89
2022/06/03 11:06:38;;;;;;;4.13;1.85;;;;;;;-148.88;41.44;74639.91;5030263;28;20049;-76
2022/06/03 11:09:07;;;;;;;4.07;1.75;;;;;;;-148.88;39.66;74621.63;5033094;28;20042;-76
2022/06/03 11:11:49;;;;;;;2.88;1.77;;;;;;;-148.88;40.36;74587.13;5033169;28;20041;-76
2022/06/03 11:14:39;;;;;;;1.80;1.40;;;;;;;-148.88;40.09;74609.44;5032961;28;20389;-76
2022/06/03 11:17:08;;;;;;;3.40;1.70;;;;;;;-148.88;40.33;74587.13;5033054;28;20021;-76
2022/06/03 11:19:37;;;;;;;4.03;1.60;;;;;;;-148.88;40.69;74544.47;5031825;28;20406;-76
2022/06/03 11:22:23;;;;;;;2.13;1.60;;;;;;;-148.88;39.10;74530.25;5033078;28;20490;-76
2022/06/03 11:25:21;;;;;;;1.95;1.33;;;;;;;-148.88;40.87;74499.81;5033255;28;20032;-76
2022/06/03 11:27:56;;;;;;;2.40;1.38;;;;;;;-148.88;39.61;74489.66;5032668;28;20064;-76
2022/06/03 11:30:34;;;;;;;2.80;1.42;;;;;;;-148.88;39.75;74495.75;5032349;28;20037;-76
2022/06/03 11:33:05;;;;;;;3.80;1.30;;;;;;;-148.88;40.48;74505.88;5031706;28;20116;-76
2022/06/03 11:35:38;;;;;;;3.03;1.27;;;;;;;-148.88;38.76;74461.22;5032877;28;20037;-76
2022/06/03 11:38:06;;;;;;;2.65;1.50;;;;;;;-148.88;37.67;74477.47;5032811;28;20021;-76
2022/06/03 11:40:37;;;;;;;1.90;1.30;;;;;;;-148.88;38.22;74509.94;5032853;28;20398;-76
2022/06/03 11:43:28;;;;;;;3.55;1.25;;;;;;;-148.88;38.25;74426.69;5033169;28;20037;-76
2022/06/03 11:46:10;;;;;;;3.15;1.50;;;;;;;-148.88;36.59;74453.09;5014660;28;20536;-76
2022/06/03 11:48:39;;;;;;;2.00;1.20;;;;;;;-148.88;39.35;74465.28;5032757;28;20083;-76
2022/06/03 11:51:07;;;;;;;2.55;1.25;;;;;;;-148.88;37.94;74483.56;5033550;28;20064;-76
2022/06/03 11:53:39;;;;;;;3.50;1.30;;;;;;;-148.88;38.57;74497.78;5033090;28;20021;-76
2022/06/03 11:56:09;;;;;;;2.33;1.50;;;;;;;-148.88;38.17;74499.81;5032844;28;20540;-75
2022/06/03 11:58:54;;;;;;;2.53;1.30;;;;;;;-148.88;36.99;74416.53;5032611;28;20028;-76
2022/06/03 12:01:43;;;;;;;2.75;1.48;;;;;;;-148.88;37.80;74396.25;5032712;28;20025;-76
2022/06/03 12:04:37;;;;;;;2.90;1.35;;;;;;;-148.88;36.93;74380.00;5033003;28;20025;-76
2022/06/03 12:07:35;;;;;;;2.40;1.33;;;;;;;-148.88;36.16;74347.50;5015432;28;20032;-76
2022/06/03 12:10:33;;;;;;;2.67;1.30;;;;;;;-148.88;35.95;74447.00;5016738;28;20127;-76
2022/06/03 12:13:17;;;;;;;1.98;1.50;;;;;;;-148.88;37.66;74479.50;5009371;28;20037;-76
2022/06/03 12:15:55;;;;;;;2.78;1.40;;;;;;;-148.88;37.87;74546.50;5015331;28;20026;-76
2022/06/03 12:18:32;;;;;;;1.70;1.40;;;;;;;-148.88;38.18;74554.63;5016481;28;20022;-76
2022/06/03 12:21:00;;;;;;;3.20;1.52;;;;;;;-148.88;36.49;74546.50;5016435;28;20022;-76
2022/06/03 12:23:25;;;;;;;3.42;1.38;;;;;;;-148.88;36.74;74538.38;5016652;28;20026;-76
2022/06/03 12:25:51;;;;;;;2.03;1.40;;;;;;;-148.88;38.42;74461.22;5016328;28;20029;-76
2022/06/03 12:28:25;;;;;;;3.22;1.27;;;;;;;-148.88;34.55;74440.91;5015019;28;20029;-76
2022/06/03 12:30:55;;;;;;;2.10;1.40;;;;;;;-148.88;36.91;74375.94;5016537;28;20026;-76
2022/06/03 12:33:34;;;;;;;2.50;1.27;;;;;;;-148.88;36.51;74323.16;5016524;28;20022;-76
2022/06/03 12:36:06;;;;;;;3.63;1.67;;;;;;;-148.88;37.70;74304.88;5016249;28;20029;-76
2022/06/03 12:38:40;;;;;;;2.78;1.30;;;;;;;-148.88;35.79;74298.78;5016147;28;20022;-76
2022/06/03 12:41:05;;;;;;;3.00;1.40;;;;;;;-148.88;34.16;74355.63;5016191;28;20120;-76
2022/06/03 12:43:46;;;;;;;2.35;1.30;;;;;;;-148.88;35.16;74361.72;5016408;28;20065;-76
2022/06/03 12:46:40;;;;;;;2.45;1.70;;;;;;;-148.88;35.90;74335.31;5014658;28;20506;-76
2022/06/03 12:49:31;;;;;;;2.75;1.45;;;;;;;-148.88;38.02;74282.53;5016113;28;20033;-76
2022/06/03 12:52:05;;;;;;;2.25;1.30;;;;;;;-148.88;34.08;74246.00;5000061;28;20040;-75
2022/06/03 12:54:32;;;;;;;2.17;1.30;;;;;;;-148.88;33.26;74262.22;5014611;28;20133;-76
2022/06/03 12:57:03;;;;;;;3.08;1.58;;;;;;;-148.88;35.15;74286.59;5015899;28;20080;-76
2022/06/03 12:59:42;;;;;;;2.90;1.67;;;;;;;-148.88;36.95;74282.53;5015841;28;20057;-76
2022/06/03 13:02:30;;;;;;;2.28;1.70;;;;;;;-148.88;35.50;74284.56;5016334;28;20362;-76
2022/06/03 13:04:55;;;;;;;4.40;2.28;;;;;;;-148.88;35.04;74282.53;5020259;28;20029;-76
2022/06/03 13:07:26;;;;;;;4.77;1.23;;;;;;;-148.88;34.71;74343.44;5035954;28;20370;-76
2022/06/03 13:10:02;;;;;;;3.40;1.50;;;;;;;-148.88;35.41;74339.38;5035430;28;20026;-76
2022/06/03 13:12:30;;;;;;;2.70;1.40;;;;;;;-148.88;37.93;74353.59;5035563;28;20017;-76
2022/06/03 13:15:16;;;;;;;2.30;1.70;;;;;;;-148.88;35.22;74390.16;5035159;28;20049;-75
2022/06/03 13:17:53;;;;;;;2.47;1.48;;;;;;;-148.88;35.78;74349.53;5035330;28;20100;-77
2022/06/03 13:20:38;;;;;;;2.83;1.90;;;;;;;-148.88;36.37;74388.13;5034077;28;20577;-76
2022/06/03 13:23:19;;;;;;;2.30;1.67;;;;;;;-148.88;36.88;74410.47;5035084;28;20029;-75
2022/06/03 13:25:45;;;;;;;3.08;1.60;;;;;;;-148.88;37.21;74408.44;5035561;28;20435;-76